sensor_id;sensor_type;location;lat;lon;timestamp;temperature;humidity
57390;DHT22;43217;52.694;6.214;2023-02-21T00:01:55;9.20;99.90
57390;DHT22;43217;52.694;6.214;2023-02-21T00:04:40;9.20;99.90
57390;DHT22;43217;52.694;6.214;2023-02-21T00:07:25;9.20;99.90
57390;DHT22;43217;52.694;6.214;2023-02-21T00:10:12;9.20;99.90
57390;DHT22;43217;52.694;6.214;2023-02-21T00:12:56;9.20;99.90
57390;DHT22;43217;52.694;6.214;2023-02-21T00:15:40;9.20;99.90
57390;DHT22;43217;52.694;6.214;2023-02-21T00:18:24;9.20;99.90
57390;DHT22;43217;52.694;6.214;2023-02-21T00:21:08;9.20;99.90
57390;DHT22;43217;52.694;6.214;2023-02-21T00:23:53;9.20;99.90
57390;DHT22;43217;52.694;6.214;2023-02-21T00:26:37;9.20;99.90
57390;DHT22;43217;52.694;6.214;2023-02-21T00:29:21;9.20;99.90
57390;DHT22;43217;52.694;6.214;2023-02-21T00:32:06;9.20;99.90
57390;DHT22;43217;52.694;6.214;2023-02-21T00:34:50;9.20;99.90
57390;DHT22;43217;52.694;6.214;2023-02-21T00:37:34;9.20;99.90
57390;DHT22;43217;52.694;6.214;2023-02-21T00:40:20;9.20;99.90
57390;DHT22;43217;52.694;6.214;2023-02-21T00:43:04;9.20;99.90
57390;DHT22;43217;52.694;6.214;2023-02-21T00:45:49;9.20;99.90
57390;DHT22;43217;52.694;6.214;2023-02-21T00:48:35;9.20;99.90
57390;DHT22;43217;52.694;6.214;2023-02-21T00:51:20;9.20;99.90
57390;DHT22;43217;52.694;6.214;2023-02-21T00:54:04;9.20;99.90
57390;DHT22;43217;52.694;6.214;2023-02-21T00:56:48;9.20;99.90
57390;DHT22;43217;52.694;6.214;2023-02-21T00:59:32;9.20;99.90
57390;DHT22;43217;52.694;6.214;2023-02-21T01:02:17;9.20;99.90
57390;DHT22;43217;52.694;6.214;2023-02-21T01:05:01;9.20;99.90
57390;DHT22;43217;52.694;6.214;2023-02-21T01:07:45;9.20;99.90
57390;DHT22;43217;52.694;6.214;2023-02-21T01:10:29;9.20;99.90
57390;DHT22;43217;52.694;6.214;2023-02-21T01:13:14;9.20;99.90
57390;DHT22;43217;52.694;6.214;2023-02-21T01:15:58;9.10;99.90
57390;DHT22;43217;52.694;6.214;2023-02-21T01:18:42;9.10;99.90
57390;DHT22;43217;52.694;6.214;2023-02-21T01:21:26;9.00;99.90
57390;DHT22;43217;52.694;6.214;2023-02-21T01:24:13;9.00;99.90
57390;DHT22;43217;52.694;6.214;2023-02-21T01:26:56;9.00;99.90
57390;DHT22;43217;52.694;6.214;2023-02-21T01:29:41;9.00;99.90
57390;DHT22;43217;52.694;6.214;2023-02-21T01:32:25;9.00;99.90
57390;DHT22;43217;52.694;6.214;2023-02-21T01:35:09;9.00;99.90
57390;DHT22;43217;52.694;6.214;2023-02-21T01:37:54;9.00;99.90
57390;DHT22;43217;52.694;6.214;2023-02-21T01:40:38;9.00;99.90
57390;DHT22;43217;52.694;6.214;2023-02-21T01:43:24;9.00;99.90
57390;DHT22;43217;52.694;6.214;2023-02-21T01:46:17;9.00;99.90
57390;DHT22;43217;52.694;6.214;2023-02-21T01:49:12;9.10;99.90
57390;DHT22;43217;52.694;6.214;2023-02-21T01:52:00;9.10;99.90
57390;DHT22;43217;52.694;6.214;2023-02-21T01:54:53;9.10;99.90
57390;DHT22;43217;52.694;6.214;2023-02-21T01:57:39;9.10;99.90
57390;DHT22;43217;52.694;6.214;2023-02-21T02:00:24;9.00;99.90
57390;DHT22;43217;52.694;6.214;2023-02-21T02:03:11;9.00;99.90
57390;DHT22;43217;52.694;6.214;2023-02-21T02:05:59;9.00;99.90
57390;DHT22;43217;52.694;6.214;2023-02-21T02:08:44;9.00;99.90
57390;DHT22;43217;52.694;6.214;2023-02-21T02:14:47;9.00;99.90
57390;DHT22;43217;52.694;6.214;2023-02-21T02:17:35;9.00;99.90
57390;DHT22;43217;52.694;6.214;2023-02-21T02:23:30;9.00;99.90
57390;DHT22;43217;52.694;6.214;2023-02-21T02:42:57;9.10;99.90
57390;DHT22;43217;52.694;6.214;2023-02-21T02:45:45;9.00;99.90
57390;DHT22;43217;52.694;6.214;2023-02-21T02:48:32;9.10;99.90
57390;DHT22;43217;52.694;6.214;2023-02-21T02:51:02;9.00;99.90
57390;DHT22;43217;52.694;6.214;2023-02-21T02:53:33;9.10;99.90
57390;DHT22;43217;52.694;6.214;2023-02-21T02:56:14;9.00;99.90
57390;DHT22;43217;52.694;6.214;2023-02-21T02:58:46;9.10;99.90
57390;DHT22;43217;52.694;6.214;2023-02-21T03:09:28;9.10;99.90
57390;DHT22;43217;52.694;6.214;2023-02-21T03:12:10;9.10;99.90
57390;DHT22;43217;52.694;6.214;2023-02-21T03:14:49;9.10;99.90
57390;DHT22;43217;52.694;6.214;2023-02-21T03:17:16;9.10;99.90
57390;DHT22;43217;52.694;6.214;2023-02-21T03:19:46;9.10;99.90
57390;DHT22;43217;52.694;6.214;2023-02-21T03:22:15;9.10;99.90
57390;DHT22;43217;52.694;6.214;2023-02-21T03:24:42;9.10;99.90
57390;DHT22;43217;52.694;6.214;2023-02-21T03:27:09;9.10;99.90
57390;DHT22;43217;52.694;6.214;2023-02-21T03:29:36;9.10;99.90
57390;DHT22;43217;52.694;6.214;2023-02-21T03:32:17;9.10;99.90
57390;DHT22;43217;52.694;6.214;2023-02-21T03:34:45;9.20;99.90
57390;DHT22;43217;52.694;6.214;2023-02-21T03:39:45;9.20;99.90
57390;DHT22;43217;52.694;6.214;2023-02-21T03:42:11;9.20;99.90
57390;DHT22;43217;52.694;6.214;2023-02-21T03:44:37;9.10;99.90
57390;DHT22;43217;52.694;6.214;2023-02-21T03:47:02;9.10;99.90
57390;DHT22;43217;52.694;6.214;2023-02-21T03:49:28;9.10;99.90
57390;DHT22;43217;52.694;6.214;2023-02-21T03:51:54;9.10;99.90
57390;DHT22;43217;52.694;6.214;2023-02-21T03:54:20;9.10;99.90
57390;DHT22;43217;52.694;6.214;2023-02-21T03:56:45;9.10;99.90
57390;DHT22;43217;52.694;6.214;2023-02-21T03:59:11;9.10;99.90
57390;DHT22;43217;52.694;6.214;2023-02-21T04:01:36;9.10;99.90
57390;DHT22;43217;52.694;6.214;2023-02-21T04:04:02;9.10;99.90
57390;DHT22;43217;52.694;6.214;2023-02-21T04:06:28;9.20;99.90
57390;DHT22;43217;52.694;6.214;2023-02-21T04:08:54;9.10;99.90
57390;DHT22;43217;52.694;6.214;2023-02-21T04:11:20;9.10;99.90
57390;DHT22;43217;52.694;6.214;2023-02-21T04:13:46;9.10;99.90
57390;DHT22;43217;52.694;6.214;2023-02-21T04:16:12;9.10;99.90
57390;DHT22;43217;52.694;6.214;2023-02-21T04:18:38;9.10;99.90
57390;DHT22;43217;52.694;6.214;2023-02-21T04:21:04;9.10;99.90
57390;DHT22;43217;52.694;6.214;2023-02-21T04:23:29;9.10;99.90
57390;DHT22;43217;52.694;6.214;2023-02-21T04:25:55;9.10;99.90
57390;DHT22;43217;52.694;6.214;2023-02-21T04:28:22;9.10;99.90
57390;DHT22;43217;52.694;6.214;2023-02-21T04:30:47;9.10;99.90
57390;DHT22;43217;52.694;6.214;2023-02-21T04:33:13;9.10;99.90
57390;DHT22;43217;52.694;6.214;2023-02-21T04:35:39;9.00;99.90
57390;DHT22;43217;52.694;6.214;2023-02-21T04:38:04;9.10;99.90
57390;DHT22;43217;52.694;6.214;2023-02-21T04:40:30;9.00;99.90
57390;DHT22;43217;52.694;6.214;2023-02-21T04:42:56;9.00;99.90
57390;DHT22;43217;52.694;6.214;2023-02-21T04:45:21;9.10;99.90
57390;DHT22;43217;52.694;6.214;2023-02-21T04:47:47;9.10;99.90
57390;DHT22;43217;52.694;6.214;2023-02-21T04:50:13;9.10;99.90
57390;DHT22;43217;52.694;6.214;2023-02-21T04:52:38;9.00;99.90
57390;DHT22;43217;52.694;6.214;2023-02-21T04:55:15;9.10;99.90
57390;DHT22;43217;52.694;6.214;2023-02-21T04:57:41;9.00;99.90
57390;DHT22;43217;52.694;6.214;2023-02-21T05:00:07;9.10;99.90
57390;DHT22;43217;52.694;6.214;2023-02-21T05:02:33;9.00;99.90
57390;DHT22;43217;52.694;6.214;2023-02-21T05:05:00;9.00;99.90
57390;DHT22;43217;52.694;6.214;2023-02-21T05:07:27;9.10;99.90
57390;DHT22;43217;52.694;6.214;2023-02-21T05:09:52;9.00;99.90
57390;DHT22;43217;52.694;6.214;2023-02-21T05:12:18;9.00;99.90
57390;DHT22;43217;52.694;6.214;2023-02-21T05:14:44;9.00;99.90
57390;DHT22;43217;52.694;6.214;2023-02-21T05:17:10;9.00;99.90
57390;DHT22;43217;52.694;6.214;2023-02-21T05:19:35;9.00;99.90
57390;DHT22;43217;52.694;6.214;2023-02-21T05:22:04;9.00;99.90
57390;DHT22;43217;52.694;6.214;2023-02-21T05:24:32;9.00;99.90
57390;DHT22;43217;52.694;6.214;2023-02-21T05:26:58;9.00;99.90
57390;DHT22;43217;52.694;6.214;2023-02-21T05:29:25;9.00;99.90
57390;DHT22;43217;52.694;6.214;2023-02-21T05:31:52;9.00;99.90
57390;DHT22;43217;52.694;6.214;2023-02-21T05:34:18;9.00;99.90
57390;DHT22;43217;52.694;6.214;2023-02-21T05:36:44;9.00;99.90
57390;DHT22;43217;52.694;6.214;2023-02-21T05:39:10;9.00;99.90
57390;DHT22;43217;52.694;6.214;2023-02-21T05:41:36;9.00;99.90
57390;DHT22;43217;52.694;6.214;2023-02-21T05:44:03;9.00;99.90
57390;DHT22;43217;52.694;6.214;2023-02-21T05:46:33;9.00;99.90
57390;DHT22;43217;52.694;6.214;2023-02-21T05:49:06;9.00;99.90
57390;DHT22;43217;52.694;6.214;2023-02-21T05:51:37;9.00;99.90
57390;DHT22;43217;52.694;6.214;2023-02-21T05:54:05;9.00;99.90
57390;DHT22;43217;52.694;6.214;2023-02-21T05:56:39;9.00;99.90
57390;DHT22;43217;52.694;6.214;2023-02-21T05:59:06;9.00;99.90
57390;DHT22;43217;52.694;6.214;2023-02-21T06:01:31;9.00;99.90
57390;DHT22;43217;52.694;6.214;2023-02-21T06:03:57;9.00;99.90
57390;DHT22;43217;52.694;6.214;2023-02-21T06:06:23;9.00;99.90
57390;DHT22;43217;52.694;6.214;2023-02-21T06:08:49;9.00;99.90
57390;DHT22;43217;52.694;6.214;2023-02-21T06:11:20;9.00;99.90
57390;DHT22;43217;52.694;6.214;2023-02-21T06:13:49;9.00;99.90
57390;DHT22;43217;52.694;6.214;2023-02-21T06:16:26;9.00;99.90
57390;DHT22;43217;52.694;6.214;2023-02-21T06:18:55;9.00;99.90
57390;DHT22;43217;52.694;6.214;2023-02-21T06:21:21;9.00;99.90
57390;DHT22;43217;52.694;6.214;2023-02-21T06:23:47;8.90;99.90
57390;DHT22;43217;52.694;6.214;2023-02-21T06:26:13;8.90;99.90
57390;DHT22;43217;52.694;6.214;2023-02-21T06:28:39;8.90;99.90
57390;DHT22;43217;52.694;6.214;2023-02-21T06:31:05;8.90;99.90
57390;DHT22;43217;52.694;6.214;2023-02-21T06:33:31;9.00;99.90
57390;DHT22;43217;52.694;6.214;2023-02-21T06:35:57;9.00;99.90
57390;DHT22;43217;52.694;6.214;2023-02-21T06:38:27;9.00;99.90
57390;DHT22;43217;52.694;6.214;2023-02-21T06:40:52;9.00;99.90
57390;DHT22;43217;52.694;6.214;2023-02-21T06:43:18;9.00;99.90
57390;DHT22;43217;52.694;6.214;2023-02-21T06:45:44;9.00;99.90
57390;DHT22;43217;52.694;6.214;2023-02-21T06:48:14;9.00;99.90
57390;DHT22;43217;52.694;6.214;2023-02-21T06:50:41;8.90;99.90
57390;DHT22;43217;52.694;6.214;2023-02-21T06:53:07;9.00;99.90
57390;DHT22;43217;52.694;6.214;2023-02-21T06:55:32;9.00;99.90
57390;DHT22;43217;52.694;6.214;2023-02-21T06:57:58;9.00;99.90
57390;DHT22;43217;52.694;6.214;2023-02-21T07:00:23;9.00;99.90
57390;DHT22;43217;52.694;6.214;2023-02-21T07:02:52;9.00;99.90
57390;DHT22;43217;52.694;6.214;2023-02-21T07:05:18;9.00;99.90
57390;DHT22;43217;52.694;6.214;2023-02-21T07:07:44;9.00;99.90
57390;DHT22;43217;52.694;6.214;2023-02-21T07:10:10;9.00;99.90
57390;DHT22;43217;52.694;6.214;2023-02-21T07:12:38;9.00;99.90
57390;DHT22;43217;52.694;6.214;2023-02-21T07:15:06;9.00;99.90
57390;DHT22;43217;52.694;6.214;2023-02-21T07:17:32;9.00;99.90
57390;DHT22;43217;52.694;6.214;2023-02-21T07:19:58;9.00;99.90
57390;DHT22;43217;52.694;6.214;2023-02-21T07:22:24;9.00;99.90
57390;DHT22;43217;52.694;6.214;2023-02-21T07:24:54;9.00;99.90
57390;DHT22;43217;52.694;6.214;2023-02-21T07:27:21;9.00;99.90
57390;DHT22;43217;52.694;6.214;2023-02-21T07:29:48;9.00;99.90
57390;DHT22;43217;52.694;6.214;2023-02-21T07:32:15;9.00;99.90
57390;DHT22;43217;52.694;6.214;2023-02-21T07:34:41;9.00;99.90
57390;DHT22;43217;52.694;6.214;2023-02-21T07:37:07;9.00;99.90
57390;DHT22;43217;52.694;6.214;2023-02-21T07:39:33;9.00;99.90
57390;DHT22;43217;52.694;6.214;2023-02-21T07:42:11;9.00;99.90
57390;DHT22;43217;52.694;6.214;2023-02-21T07:44:37;9.00;99.90
57390;DHT22;43217;52.694;6.214;2023-02-21T07:47:03;9.00;99.90
57390;DHT22;43217;52.694;6.214;2023-02-21T07:49:29;9.00;99.90
57390;DHT22;43217;52.694;6.214;2023-02-21T07:51:54;9.00;99.90
57390;DHT22;43217;52.694;6.214;2023-02-21T07:54:20;9.00;99.90
57390;DHT22;43217;52.694;6.214;2023-02-21T07:56:48;9.10;99.90
57390;DHT22;43217;52.694;6.214;2023-02-21T07:59:14;9.10;99.90
57390;DHT22;43217;52.694;6.214;2023-02-21T08:01:40;9.10;99.90
57390;DHT22;43217;52.694;6.214;2023-02-21T08:04:06;9.10;99.90
57390;DHT22;43217;52.694;6.214;2023-02-21T08:06:33;9.10;99.90
57390;DHT22;43217;52.694;6.214;2023-02-21T08:09:00;9.20;99.90
57390;DHT22;43217;52.694;6.214;2023-02-21T08:11:25;9.20;99.90
57390;DHT22;43217;52.694;6.214;2023-02-21T08:13:51;9.20;99.90
57390;DHT22;43217;52.694;6.214;2023-02-21T08:16:17;9.20;99.90
57390;DHT22;43217;52.694;6.214;2023-02-21T08:18:46;9.20;99.90
57390;DHT22;43217;52.694;6.214;2023-02-21T08:21:11;9.20;99.90
57390;DHT22;43217;52.694;6.214;2023-02-21T08:23:38;9.20;99.90
57390;DHT22;43217;52.694;6.214;2023-02-21T08:26:04;9.20;99.90
57390;DHT22;43217;52.694;6.214;2023-02-21T08:28:30;9.30;99.90
57390;DHT22;43217;52.694;6.214;2023-02-21T08:30:57;9.30;99.90
57390;DHT22;43217;52.694;6.214;2023-02-21T08:33:23;9.30;99.90
57390;DHT22;43217;52.694;6.214;2023-02-21T08:35:49;9.30;99.90
57390;DHT22;43217;52.694;6.214;2023-02-21T08:38:17;9.30;99.90
57390;DHT22;43217;52.694;6.214;2023-02-21T08:40:42;9.30;99.90
57390;DHT22;43217;52.694;6.214;2023-02-21T08:43:09;9.30;99.90
57390;DHT22;43217;52.694;6.214;2023-02-21T08:45:35;9.30;99.90
57390;DHT22;43217;52.694;6.214;2023-02-21T08:48:01;9.30;99.90
57390;DHT22;43217;52.694;6.214;2023-02-21T08:50:30;9.30;99.90
57390;DHT22;43217;52.694;6.214;2023-02-21T08:52:57;9.30;99.90
57390;DHT22;43217;52.694;6.214;2023-02-21T08:55:30;9.30;99.90
57390;DHT22;43217;52.694;6.214;2023-02-21T08:57:58;9.40;99.90
57390;DHT22;43217;52.694;6.214;2023-02-21T09:00:24;9.40;99.90
57390;DHT22;43217;52.694;6.214;2023-02-21T09:02:57;9.40;99.90
57390;DHT22;43217;52.694;6.214;2023-02-21T09:05:26;9.40;99.90
57390;DHT22;43217;52.694;6.214;2023-02-21T09:07:53;9.40;99.90
57390;DHT22;43217;52.694;6.214;2023-02-21T09:10:24;9.40;99.90
57390;DHT22;43217;52.694;6.214;2023-02-21T09:12:49;9.40;99.90
57390;DHT22;43217;52.694;6.214;2023-02-21T09:15:16;9.50;99.90
57390;DHT22;43217;52.694;6.214;2023-02-21T09:17:47;9.50;99.90
57390;DHT22;43217;52.694;6.214;2023-02-21T09:23:02;9.60;99.90
57390;DHT22;43217;52.694;6.214;2023-02-21T09:25:28;9.60;99.90
57390;DHT22;43217;52.694;6.214;2023-02-21T09:27:56;9.70;99.90
57390;DHT22;43217;52.694;6.214;2023-02-21T09:30:24;9.70;99.90
57390;DHT22;43217;52.694;6.214;2023-02-21T09:32:51;9.70;99.90
57390;DHT22;43217;52.694;6.214;2023-02-21T09:35:17;9.80;99.90
57390;DHT22;43217;52.694;6.214;2023-02-21T09:37:47;9.70;99.90
57390;DHT22;43217;52.694;6.214;2023-02-21T09:41:02;9.70;99.90
57390;DHT22;43217;52.694;6.214;2023-02-21T09:43:20;9.70;99.90
57390;DHT22;43217;52.694;6.214;2023-02-21T09:45:53;9.80;99.90
57390;DHT22;43217;52.694;6.214;2023-02-21T09:48:23;9.80;99.90
57390;DHT22;43217;52.694;6.214;2023-02-21T09:51:00;9.80;99.90
57390;DHT22;43217;52.694;6.214;2023-02-21T09:53:30;9.80;99.90
57390;DHT22;43217;52.694;6.214;2023-02-21T09:56:03;9.80;99.90
57390;DHT22;43217;52.694;6.214;2023-02-21T09:58:42;9.80;99.90
57390;DHT22;43217;52.694;6.214;2023-02-21T10:07:11;9.80;99.90
57390;DHT22;43217;52.694;6.214;2023-02-21T10:15:18;9.80;99.90
57390;DHT22;43217;52.694;6.214;2023-02-21T10:18:51;9.80;99.90
57390;DHT22;43217;52.694;6.214;2023-02-21T10:20:55;9.80;99.90
57390;DHT22;43217;52.694;6.214;2023-02-21T10:23:29;9.80;99.90
57390;DHT22;43217;52.694;6.214;2023-02-21T10:26:12;9.80;99.90
57390;DHT22;43217;52.694;6.214;2023-02-21T10:28:38;9.80;99.90
57390;DHT22;43217;52.694;6.214;2023-02-21T10:31:11;9.80;99.90
57390;DHT22;43217;52.694;6.214;2023-02-21T10:33:38;9.80;99.90
57390;DHT22;43217;52.694;6.214;2023-02-21T10:36:24;9.80;99.90
57390;DHT22;43217;52.694;6.214;2023-02-21T10:38:58;9.90;99.90
57390;DHT22;43217;52.694;6.214;2023-02-21T10:41:28;9.90;99.90
57390;DHT22;43217;52.694;6.214;2023-02-21T10:44:26;9.90;99.90
57390;DHT22;43217;52.694;6.214;2023-02-21T10:47:07;9.90;99.90
57390;DHT22;43217;52.694;6.214;2023-02-21T10:52:50;9.90;99.90
57390;DHT22;43217;52.694;6.214;2023-02-21T10:55:18;9.90;99.90
57390;DHT22;43217;52.694;6.214;2023-02-21T10:57:49;9.90;99.90
57390;DHT22;43217;52.694;6.214;2023-02-21T11:00:32;9.90;99.90
57390;DHT22;43217;52.694;6.214;2023-02-21T11:03:05;9.90;99.90
57390;DHT22;43217;52.694;6.214;2023-02-21T11:05:31;9.90;99.90
57390;DHT22;43217;52.694;6.214;2023-02-21T11:08:01;9.90;99.90
57390;DHT22;43217;52.694;6.214;2023-02-21T11:10:33;9.90;99.90
57390;DHT22;43217;52.694;6.214;2023-02-21T11:13:15;9.90;99.90
57390;DHT22;43217;52.694;6.214;2023-02-21T11:15:43;9.90;99.90
57390;DHT22;43217;52.694;6.214;2023-02-21T11:18:21;9.90;99.90
57390;DHT22;43217;52.694;6.214;2023-02-21T11:20:47;9.90;99.90
57390;DHT22;43217;52.694;6.214;2023-02-21T11:23:25;9.90;99.90
57390;DHT22;43217;52.694;6.214;2023-02-21T11:26:05;9.90;99.90
57390;DHT22;43217;52.694;6.214;2023-02-21T11:28:40;10.00;99.90
57390;DHT22;43217;52.694;6.214;2023-02-21T11:31:29;10.00;99.90
57390;DHT22;43217;52.694;6.214;2023-02-21T11:34:05;10.00;99.90
57390;DHT22;43217;52.694;6.214;2023-02-21T11:36:34;10.00;99.90
57390;DHT22;43217;52.694;6.214;2023-02-21T11:39:22;10.00;99.90
57390;DHT22;43217;52.694;6.214;2023-02-21T11:42:03;10.00;99.90
57390;DHT22;43217;52.694;6.214;2023-02-21T11:44:33;10.00;99.90
57390;DHT22;43217;52.694;6.214;2023-02-21T11:47:22;10.00;99.90
57390;DHT22;43217;52.694;6.214;2023-02-21T11:49:56;10.00;99.90
57390;DHT22;43217;52.694;6.214;2023-02-21T11:55:17;10.00;99.90
57390;DHT22;43217;52.694;6.214;2023-02-21T11:57:49;10.00;99.90
57390;DHT22;43217;52.694;6.214;2023-02-21T12:00:36;10.00;99.90
57390;DHT22;43217;52.694;6.214;2023-02-21T12:03:13;10.00;99.90
57390;DHT22;43217;52.694;6.214;2023-02-21T12:08:44;10.00;99.90
57390;DHT22;43217;52.694;6.214;2023-02-21T12:11:17;10.00;99.90
57390;DHT22;43217;52.694;6.214;2023-02-21T12:16:45;10.00;99.90
57390;DHT22;43217;52.694;6.214;2023-02-21T12:25:02;10.00;99.90
57390;DHT22;43217;52.694;6.214;2023-02-21T12:27:49;10.00;99.90
57390;DHT22;43217;52.694;6.214;2023-02-21T12:36:01;10.10;99.90
57390;DHT22;43217;52.694;6.214;2023-02-21T12:46:27;10.10;99.90
57390;DHT22;43217;52.694;6.214;2023-02-21T12:49:05;10.10;99.90
57390;DHT22;43217;52.694;6.214;2023-02-21T12:51:41;10.10;99.90
57390;DHT22;43217;52.694;6.214;2023-02-21T12:54:35;10.10;99.90
57390;DHT22;43217;52.694;6.214;2023-02-21T12:57:26;10.10;99.90
57390;DHT22;43217;52.694;6.214;2023-02-21T13:05:55;10.10;99.90
57390;DHT22;43217;52.694;6.214;2023-02-21T13:08:55;10.10;99.90
57390;DHT22;43217;52.694;6.214;2023-02-21T13:11:33;10.10;99.90
57390;DHT22;43217;52.694;6.214;2023-02-21T13:14:13;10.10;99.90
57390;DHT22;43217;52.694;6.214;2023-02-21T13:16:41;10.10;99.90
57390;DHT22;43217;52.694;6.214;2023-02-21T13:19:10;10.10;99.90
57390;DHT22;43217;52.694;6.214;2023-02-21T13:29:43;10.20;99.90
57390;DHT22;43217;52.694;6.214;2023-02-21T13:32:12;10.10;99.90
57390;DHT22;43217;52.694;6.214;2023-02-21T13:34:53;10.20;99.90
57390;DHT22;43217;52.694;6.214;2023-02-21T13:37:26;10.10;99.90
57390;DHT22;43217;52.694;6.214;2023-02-21T13:39:58;10.20;99.90
57390;DHT22;43217;52.694;6.214;2023-02-21T13:42:34;10.20;99.90
57390;DHT22;43217;52.694;6.214;2023-02-21T13:45:20;10.10;99.90
57390;DHT22;43217;52.694;6.214;2023-02-21T13:53:24;10.20;99.90
57390;DHT22;43217;52.694;6.214;2023-02-21T13:58:37;10.20;99.90
57390;DHT22;43217;52.694;6.214;2023-02-21T14:03:47;10.10;99.90
57390;DHT22;43217;52.694;6.214;2023-02-21T14:06:34;10.10;99.90
57390;DHT22;43217;52.694;6.214;2023-02-21T14:09:14;10.10;99.90
57390;DHT22;43217;52.694;6.214;2023-02-21T14:11:50;10.10;99.90
57390;DHT22;43217;52.694;6.214;2023-02-21T14:14:28;10.10;99.90
57390;DHT22;43217;52.694;6.214;2023-02-21T14:17:12;10.20;99.90
57390;DHT22;43217;52.694;6.214;2023-02-21T14:19:46;10.10;99.90
57390;DHT22;43217;52.694;6.214;2023-02-21T14:22:22;10.10;99.90
57390;DHT22;43217;52.694;6.214;2023-02-21T14:24:51;10.10;99.90
57390;DHT22;43217;52.694;6.214;2023-02-21T14:43:06;10.10;99.90
57390;DHT22;43217;52.694;6.214;2023-02-21T14:45:41;10.10;99.90
57390;DHT22;43217;52.694;6.214;2023-02-21T14:48:17;10.00;99.90
57390;DHT22;43217;52.694;6.214;2023-02-21T14:50:58;10.10;99.90
57390;DHT22;43217;52.694;6.214;2023-02-21T15:04:33;10.00;99.90
57390;DHT22;43217;52.694;6.214;2023-02-21T15:07:22;10.00;99.90
57390;DHT22;43217;52.694;6.214;2023-02-21T15:12:51;10.00;99.90
57390;DHT22;43217;52.694;6.214;2023-02-21T15:15:39;10.00;99.90
57390;DHT22;43217;52.694;6.214;2023-02-21T15:18:08;10.00;99.90
57390;DHT22;43217;52.694;6.214;2023-02-21T15:20:39;9.90;99.90
57390;DHT22;43217;52.694;6.214;2023-02-21T15:23:12;9.90;99.90
57390;DHT22;43217;52.694;6.214;2023-02-21T15:25:41;9.90;99.90
57390;DHT22;43217;52.694;6.214;2023-02-21T15:28:22;9.90;99.90
57390;DHT22;43217;52.694;6.214;2023-02-21T15:31:04;9.90;99.90
57390;DHT22;43217;52.694;6.214;2023-02-21T15:33:34;9.90;99.90
57390;DHT22;43217;52.694;6.214;2023-02-21T15:36:07;9.90;99.90
57390;DHT22;43217;52.694;6.214;2023-02-21T15:38:42;9.90;99.90
57390;DHT22;43217;52.694;6.214;2023-02-21T15:43:44;9.80;99.90
57390;DHT22;43217;52.694;6.214;2023-02-21T15:46:15;9.90;99.90
57390;DHT22;43217;52.694;6.214;2023-02-21T15:48:42;9.80;99.90
57390;DHT22;43217;52.694;6.214;2023-02-21T15:51:09;9.80;99.90
57390;DHT22;43217;52.694;6.214;2023-02-21T15:53:35;9.80;99.90
57390;DHT22;43217;52.694;6.214;2023-02-21T15:56:17;9.80;99.90
57390;DHT22;43217;52.694;6.214;2023-02-21T15:59:18;9.80;99.90
57390;DHT22;43217;52.694;6.214;2023-02-21T16:01:44;9.80;99.90
57390;DHT22;43217;52.694;6.214;2023-02-21T16:04:21;9.70;99.90
57390;DHT22;43217;52.694;6.214;2023-02-21T16:06:55;9.80;99.90
57390;DHT22;43217;52.694;6.214;2023-02-21T16:09:33;9.80;99.90
57390;DHT22;43217;52.694;6.214;2023-02-21T16:15:43;9.70;99.90
57390;DHT22;43217;52.694;6.214;2023-02-21T16:17:56;9.70;99.90
57390;DHT22;43217;52.694;6.214;2023-02-21T16:20:37;9.70;99.90
57390;DHT22;43217;52.694;6.214;2023-02-21T16:28:31;9.70;99.90
57390;DHT22;43217;52.694;6.214;2023-02-21T16:30:59;9.70;99.90
57390;DHT22;43217;52.694;6.214;2023-02-21T16:33:29;9.60;99.90
57390;DHT22;43217;52.694;6.214;2023-02-21T16:35:56;9.60;99.90
57390;DHT22;43217;52.694;6.214;2023-02-21T16:38:23;9.70;99.90
57390;DHT22;43217;52.694;6.214;2023-02-21T16:40:49;9.60;99.90
57390;DHT22;43217;52.694;6.214;2023-02-21T16:43:33;9.60;99.90
57390;DHT22;43217;52.694;6.214;2023-02-21T16:45:58;9.60;99.90
57390;DHT22;43217;52.694;6.214;2023-02-21T16:48:27;9.60;99.90
57390;DHT22;43217;52.694;6.214;2023-02-21T16:51:06;9.60;99.90
57390;DHT22;43217;52.694;6.214;2023-02-21T16:53:34;9.60;99.90
57390;DHT22;43217;52.694;6.214;2023-02-21T16:56:00;9.60;99.90
57390;DHT22;43217;52.694;6.214;2023-02-21T16:58:36;9.60;99.90
57390;DHT22;43217;52.694;6.214;2023-02-21T17:01:13;9.60;99.90
57390;DHT22;43217;52.694;6.214;2023-02-21T17:03:40;9.60;99.90
57390;DHT22;43217;52.694;6.214;2023-02-21T17:06:06;9.60;99.90
57390;DHT22;43217;52.694;6.214;2023-02-21T17:08:32;9.60;99.90
57390;DHT22;43217;52.694;6.214;2023-02-21T17:10:58;9.50;99.90
57390;DHT22;43217;52.694;6.214;2023-02-21T17:13:25;9.60;99.90
57390;DHT22;43217;52.694;6.214;2023-02-21T17:15:51;9.50;99.90
57390;DHT22;43217;52.694;6.214;2023-02-21T17:18:16;9.50;99.90
57390;DHT22;43217;52.694;6.214;2023-02-21T17:20:43;9.60;99.90
57390;DHT22;43217;52.694;6.214;2023-02-21T17:23:09;9.50;99.90
57390;DHT22;43217;52.694;6.214;2023-02-21T17:25:35;9.60;99.90
57390;DHT22;43217;52.694;6.214;2023-02-21T17:28:09;9.60;99.90
57390;DHT22;43217;52.694;6.214;2023-02-21T17:30:44;9.50;99.90
57390;DHT22;43217;52.694;6.214;2023-02-21T17:33:14;9.50;99.90
57390;DHT22;43217;52.694;6.214;2023-02-21T17:35:39;9.50;99.90
57390;DHT22;43217;52.694;6.214;2023-02-21T17:38:05;9.50;99.90
57390;DHT22;43217;52.694;6.214;2023-02-21T17:40:31;9.50;99.90
57390;DHT22;43217;52.694;6.214;2023-02-21T17:42:57;9.50;99.90
57390;DHT22;43217;52.694;6.214;2023-02-21T17:45:23;9.50;99.90
57390;DHT22;43217;52.694;6.214;2023-02-21T17:47:51;9.50;99.90
57390;DHT22;43217;52.694;6.214;2023-02-21T17:50:18;9.50;99.90
57390;DHT22;43217;52.694;6.214;2023-02-21T17:52:44;9.50;99.90
57390;DHT22;43217;52.694;6.214;2023-02-21T17:55:18;9.50;99.90
57390;DHT22;43217;52.694;6.214;2023-02-21T17:57:48;9.40;99.90
57390;DHT22;43217;52.694;6.214;2023-02-21T18:00:26;9.50;99.90
57390;DHT22;43217;52.694;6.214;2023-02-21T18:02:53;9.40;99.90
57390;DHT22;43217;52.694;6.214;2023-02-21T18:05:20;9.50;99.90
57390;DHT22;43217;52.694;6.214;2023-02-21T18:07:52;9.40;99.90
57390;DHT22;43217;52.694;6.214;2023-02-21T18:10:20;9.40;99.90
57390;DHT22;43217;52.694;6.214;2023-02-21T18:12:57;9.40;99.90
57390;DHT22;43217;52.694;6.214;2023-02-21T18:15:31;9.40;99.90
57390;DHT22;43217;52.694;6.214;2023-02-21T18:17:58;9.30;99.90
57390;DHT22;43217;52.694;6.214;2023-02-21T18:20:29;9.40;99.90
57390;DHT22;43217;52.694;6.214;2023-02-21T18:22:56;9.40;99.90
57390;DHT22;43217;52.694;6.214;2023-02-21T18:25:22;9.40;99.90
57390;DHT22;43217;52.694;6.214;2023-02-21T18:27:49;9.30;99.90
57390;DHT22;43217;52.694;6.214;2023-02-21T18:30:17;9.30;99.90
57390;DHT22;43217;52.694;6.214;2023-02-21T18:32:44;9.30;99.90
57390;DHT22;43217;52.694;6.214;2023-02-21T18:35:10;9.30;99.90
57390;DHT22;43217;52.694;6.214;2023-02-21T18:37:44;9.30;99.90
57390;DHT22;43217;52.694;6.214;2023-02-21T18:40:18;9.30;99.90
57390;DHT22;43217;52.694;6.214;2023-02-21T18:42:44;9.30;99.90
57390;DHT22;43217;52.694;6.214;2023-02-21T18:45:12;9.30;99.90